Time;durP1;ratioP1;P1;durP2;ratioP2;P2;SDS_P1;SDS_P2;PMS_P1;PMS_P2;Temp;Humidity;BMP_temperature;BMP_pressure;BME280_temperature;BME280_humidity;BME280_pressure;Samples;Min_cycle;Max_cycle;Signal;HPM_P1;HPM_P2
2023/05/17 00:01:09;;;;;;;2.15;0.93;;;16.60;57.40;;;;;;5066052;28;45522;-72
2023/05/17 00:03:38;;;;;;;1.10;1.00;;;16.70;57.50;;;;;;5066372;28;45237;-72
2023/05/17 00:06:05;;;;;;;1.00;1.00;;;16.60;57.40;;;;;;5063385;28;45672;-72
2023/05/17 00:08:31;;;;;;;1.23;0.90;;;16.60;57.40;;;;;;5066172;28;45377;-72
2023/05/17 00:10:58;;;;;;;1.45;0.77;;;16.60;58.00;;;;;;5065913;28;45406;-71
2023/05/17 00:13:25;;;;;;;1.05;0.88;;;16.60;57.40;;;;;;5066317;28;45327;-71
2023/05/17 00:15:52;;;;;;;1.48;0.90;;;16.60;57.40;;;;;;5065701;28;46388;-72
2023/05/17 00:18:19;;;;;;;0.93;0.80;;;16.50;57.40;;;;;;5065924;28;45300;-72
2023/05/17 00:20:47;;;;;;;1.02;0.88;;;16.60;57.40;;;;;;5066231;28;45419;-72
2023/05/17 00:23:14;;;;;;;0.82;0.82;;;16.50;57.30;;;;;;5066369;28;45423;-72
2023/05/17 00:25:40;;;;;;;0.77;0.77;;;16.50;57.40;;;;;;5065803;28;46749;-71
2023/05/17 00:28:07;;;;;;;0.80;0.75;;;16.50;57.40;;;;;;5065764;28;45260;-71
2023/05/17 00:30:34;;;;;;;0.80;0.80;;;16.50;57.40;;;;;;5065987;28;45336;-71
2023/05/17 00:33:01;;;;;;;1.02;0.90;;;16.50;57.40;;;;;;5065855;28;45475;-72
2023/05/17 00:35:28;;;;;;;3.13;0.88;;;16.40;57.30;;;;;;5065533;28;45375;-71
2023/05/17 00:37:56;;;;;;;0.70;0.70;;;16.40;57.30;;;;;;5065828;28;45383;-72
2023/05/17 00:40:23;;;;;;;1.35;0.90;;;16.40;57.30;;;;;;5065658;28;45257;-72
2023/05/17 00:42:49;;;;;;;0.90;0.90;;;16.50;57.40;;;;;;5066681;28;45127;-72
2023/05/17 00:45:16;;;;;;;1.23;0.75;;;16.40;57.30;;;;;;5066423;28;45204;-72
2023/05/17 00:47:43;;;;;;;1.48;0.90;;;16.40;57.30;;;;;;5069098;28;45321;-72
2023/05/17 00:50:11;;;;;;;1.30;0.80;;;16.40;57.30;;;;;;5069401;28;45400;-71
2023/05/17 00:52:38;;;;;;;0.60;0.60;;;16.40;57.30;;;;;;5069247;28;45173;-71
2023/05/17 00:55:07;;;;;;;0.77;0.77;;;16.40;57.30;;;;;;5068801;28;46342;-71
2023/05/17 00:57:33;;;;;;;0.80;0.80;;;16.40;57.20;;;;;;5069320;28;45379;-71
2023/05/17 01:00:00;;;;;;;0.77;0.70;;;16.30;57.20;;;;;;5069053;28;45323;-72
2023/05/17 01:02:27;;;;;;;0.93;0.85;;;16.30;57.20;;;;;;5069602;28;45463;-72
2023/05/17 01:04:54;;;;;;;1.95;0.95;;;16.40;57.30;;;;;;5068737;28;45491;-71
2023/05/17 01:07:21;;;;;;;1.00;1.00;;;16.30;57.20;;;;;;5068847;28;45333;-71
2023/05/17 01:09:47;;;;;;;0.88;0.88;;;16.30;57.20;;;;;;5068935;28;45304;-72
2023/05/17 01:12:22;;;;;;;1.23;0.85;;;16.30;57.20;;;;;;5069134;28;45408;-72
2023/05/17 01:14:54;;;;;;;0.80;0.70;;;16.30;57.20;;;;;;5068548;28;46398;-72
2023/05/17 01:17:24;;;;;;;1.30;0.85;;;16.30;57.20;;;;;;5068815;28;45399;-71
2023/05/17 01:20:01;;;;;;;0.70;0.70;;;16.30;57.20;;;;;;5068900;28;45243;-72
2023/05/17 01:22:32;;;;;;;0.63;0.60;;;16.30;57.20;;;;;;5068960;28;45396;-72
2023/05/17 01:25:10;;;;;;;0.73;0.73;;;16.20;57.10;;;;;;5068480;28;46604;-72
2023/05/17 01:27:39;;;;;;;1.42;0.70;;;16.20;57.10;;;;;;5068506;28;45311;-72
2023/05/17 01:30:07;;;;;;;1.48;0.95;;;16.20;57.10;;;;;;5068549;28;45324;-71
2023/05/17 01:32:34;;;;;;;1.08;0.63;;;16.20;57.10;;;;;;5068623;28;45570;-72
2023/05/17 01:35:03;;;;;;;1.00;0.77;;;16.20;57.10;;;;;;5068183;28;45274;-72
2023/05/17 01:37:30;;;;;;;0.63;0.63;;;16.20;57.10;;;;;;5068259;28;45257;-71
2023/05/17 01:39:57;;;;;;;1.23;0.77;;;16.20;57.10;;;;;;5068277;28;45421;-72
2023/05/17 01:42:26;;;;;;;0.95;0.70;;;16.10;57.00;;;;;;5068888;28;45363;-71
2023/05/17 01:44:59;;;;;;;0.70;0.70;;;16.20;56.50;;;;;;5068186;28;46396;-71
2023/05/17 01:47:29;;;;;;;0.68;0.68;;;16.10;57.10;;;;;;5068392;28;45281;-72
2023/05/17 01:49:56;;;;;;;0.57;0.57;;;16.10;57.00;;;;;;5068383;28;45268;-71
2023/05/17 01:52:25;;;;;;;0.65;0.60;;;16.10;57.10;;;;;;5068322;28;45293;-71
2023/05/17 01:54:56;;;;;;;0.60;0.60;;;16.10;57.00;;;;;;5067782;28;45424;-71
2023/05/17 01:57:25;;;;;;;0.52;0.52;;;16.10;57.10;;;;;;5068323;28;45391;-72
2023/05/17 01:59:52;;;;;;;0.75;0.60;;;16.10;57.00;;;;;;5068091;28;45328;-71
2023/05/17 02:02:21;;;;;;;0.90;0.80;;;16.10;57.10;;;;;;5068456;28;45335;-72
2023/05/17 02:04:48;;;;;;;1.23;0.85;;;16.00;57.00;;;;;;5067896;28;46606;-71
2023/05/17 02:07:15;;;;;;;0.65;0.65;;;16.00;57.00;;;;;;5068045;28;45419;-71
2023/05/17 02:09:41;;;;;;;0.60;0.60;;;16.00;57.00;;;;;;5068174;28;45328;-71
2023/05/17 02:12:08;;;;;;;0.80;0.55;;;16.00;57.00;;;;;;5068159;28;45177;-71
2023/05/17 02:14:35;;;;;;;1.38;0.70;;;16.00;57.10;;;;;;5067830;28;45822;-72
2023/05/17 02:17:04;;;;;;;1.08;0.73;;;16.00;57.10;;;;;;5067789;28;45320;-71
2023/05/17 02:19:32;;;;;;;0.57;0.57;;;16.00;57.10;;;;;;5068084;28;45367;-71
2023/05/17 02:21:59;;;;;;;0.57;0.50;;;16.00;57.10;;;;;;5068330;28;45328;-72
2023/05/17 02:24:26;;;;;;;0.75;0.73;;;15.90;57.00;;;;;;5067683;28;46438;-71
2023/05/17 02:26:53;;;;;;;0.73;0.73;;;15.90;57.10;;;;;;5067610;28;45421;-71
2023/05/17 02:29:19;;;;;;;1.17;0.70;;;15.90;57.00;;;;;;5067705;28;45368;-72
2023/05/17 02:31:46;;;;;;;0.80;0.70;;;15.90;57.00;;;;;;5067969;28;45308;-72
2023/05/17 02:34:13;;;;;;;0.70;0.60;;;15.90;57.00;;;;;;5067421;28;46399;-71
2023/05/17 02:36:43;;;;;;;0.60;0.60;;;15.90;57.00;;;;;;5067439;28;45204;-72
2023/05/17 02:39:10;;;;;;;0.68;0.50;;;15.90;57.00;;;;;;5067367;28;45447;-71
2023/05/17 02:41:36;;;;;;;0.60;0.60;;;15.90;57.00;;;;;;5067800;28;45332;-72
2023/05/17 02:44:04;;;;;;;0.70;0.70;;;15.90;57.00;;;;;;5067408;28;45376;-72
2023/05/17 02:46:31;;;;;;;0.50;0.50;;;15.90;57.00;;;;;;5067609;28;45399;-72
2023/05/17 02:48:57;;;;;;;0.98;0.68;;;15.80;56.90;;;;;;5067341;28;45401;-72
2023/05/17 02:51:24;;;;;;;0.60;0.60;;;15.80;56.90;;;;;;5067713;28;45385;-72
2023/05/17 02:53:52;;;;;;;0.88;0.70;;;15.80;56.90;;;;;;5067200;28;45379;-72
2023/05/17 02:56:19;;;;;;;0.60;0.60;;;15.80;56.90;;;;;;5067233;28;45289;-71
2023/05/17 02:58:46;;;;;;;0.60;0.60;;;15.80;56.90;;;;;;5067443;28;45304;-72
2023/05/17 03:01:13;;;;;;;0.63;0.63;;;15.80;56.90;;;;;;5067165;28;45429;-72
2023/05/17 03:03:40;;;;;;;0.50;0.50;;;15.80;56.90;;;;;;5067073;28;45474;-72
2023/05/17 03:06:07;;;;;;;0.65;0.65;;;15.80;56.90;;;;;;5066363;28;45307;-72
2023/05/17 03:08:33;;;;;;;0.50;0.50;;;15.80;56.90;;;;;;5067222;28;45151;-72
2023/05/17 03:11:02;;;;;;;0.75;0.60;;;15.70;56.90;;;;;;5067277;28;45400;-72
2023/05/17 03:13:29;;;;;;;0.68;0.65;;;15.80;56.90;;;;;;5066981;28;45486;-71
2023/05/17 03:15:56;;;;;;;0.73;0.55;;;15.70;56.90;;;;;;5067012;28;45485;-71
2023/05/17 03:18:23;;;;;;;1.05;0.80;;;15.70;56.90;;;;;;5067187;28;45360;-72
2023/05/17 03:20:50;;;;;;;1.02;0.70;;;15.70;56.80;;;;;;5066970;28;45254;-71
2023/05/17 03:23:16;;;;;;;2.40;0.80;;;15.70;56.80;;;;;;5066384;28;47140;-71
2023/05/17 03:25:43;;;;;;;0.68;0.60;;;15.70;56.80;;;;;;5067027;28;45388;-71
2023/05/17 03:28:11;;;;;;;0.47;0.47;;;15.70;56.80;;;;;;5066986;28;45316;-72
2023/05/17 03:30:38;;;;;;;0.55;0.55;;;15.70;56.80;;;;;;5066910;28;45294;-71
2023/05/17 03:33:05;;;;;;;1.08;0.80;;;15.70;56.80;;;;;;5066561;28;45248;-71
2023/05/17 03:35:32;;;;;;;0.60;0.57;;;15.70;56.80;;;;;;5066592;28;45359;-71
2023/05/17 03:37:58;;;;;;;0.68;0.68;;;15.60;56.80;;;;;;5066900;28;45324;-72
2023/05/17 03:40:25;;;;;;;0.60;0.60;;;15.60;56.80;;;;;;5066669;28;45383;-71
2023/05/17 03:42:53;;;;;;;0.55;0.55;;;15.60;56.70;;;;;;5066458;28;46261;-71
2023/05/17 03:45:21;;;;;;;0.60;0.60;;;15.60;56.80;;;;;;5066487;28;45294;-72
2023/05/17 03:47:47;;;;;;;2.30;0.60;;;15.60;56.80;;;;;;5066596;28;45245;-71
2023/05/17 03:50:14;;;;;;;0.50;0.50;;;15.60;56.80;;;;;;5066591;28;45364;-71
2023/05/17 03:52:41;;;;;;;0.47;0.47;;;15.60;56.70;;;;;;5066264;28;46507;-72
2023/05/17 03:55:09;;;;;;;1.17;0.68;;;15.60;56.70;;;;;;5066221;28;45400;-72
2023/05/17 03:57:36;;;;;;;1.23;0.68;;;15.60;56.70;;;;;;5066362;28;45226;-71
2023/05/17 04:00:05;;;;;;;0.40;0.40;;;15.50;56.70;;;;;;5066423;28;45259;-72
2023/05/17 04:02:33;;;;;;;0.65;0.65;;;15.50;56.70;;;;;;5066104;28;45461;-72
2023/05/17 04:05:00;;;;;;;1.02;0.70;;;15.50;56.70;;;;;;5066098;28;45361;-72
2023/05/17 04:07:27;;;;;;;0.52;0.50;;;15.50;56.70;;;;;;5066173;28;45174;-71
2023/05/17 04:09:57;;;;;;;0.95;0.70;;;15.50;56.70;;;;;;5066329;28;45444;-72
2023/05/17 04:12:24;;;;;;;0.60;0.60;;;15.50;56.70;;;;;;5066085;28;46670;-72
2023/05/17 04:14:51;;;;;;;0.60;0.60;;;15.50;56.70;;;;;;5066002;28;45283;-72
2023/05/17 04:17:18;;;;;;;0.50;0.50;;;15.50;56.70;;;;;;5065357;28;45372;-72
2023/05/17 04:19:46;;;;;;;1.52;0.65;;;15.50;56.70;;;;;;5066283;28;45457;-72
2023/05/17 04:22:13;;;;;;;0.65;0.60;;;15.50;56.70;;;;;;5066103;28;46616;-72
2023/05/17 04:24:40;;;;;;;0.57;0.50;;;15.40;56.60;;;;;;5065883;28;45264;-72
2023/05/17 04:27:06;;;;;;;1.92;0.63;;;15.50;56.70;;;;;;5066183;28;45281;-72
2023/05/17 04:29:33;;;;;;;0.60;0.60;;;15.40;56.60;;;;;;5066308;28;45332;-71
2023/05/17 04:32:00;;;;;;;1.20;0.70;;;15.50;56.70;;;;;;5065891;28;46392;-72
2023/05/17 04:34:27;;;;;;;2.40;0.65;;;15.40;56.60;;;;;;5065757;28;45375;-72
2023/05/17 04:36:55;;;;;;;0.60;0.60;;;15.40;56.50;;;;;;5065980;28;45276;-72
2023/05/17 04:39:22;;;;;;;0.95;0.65;;;15.50;56.60;;;;;;5066252;28;45448;-72
2023/05/17 04:41:49;;;;;;;0.88;0.50;;;15.40;56.50;;;;;;5065524;28;45387;-72
2023/05/17 04:44:16;;;;;;;1.50;0.60;;;15.40;56.50;;;;;;5065712;28;45403;-72
2023/05/17 04:46:43;;;;;;;0.70;0.70;;;15.50;56.50;;;;;;5065780;28;45483;-72
2023/05/17 04:49:09;;;;;;;1.05;0.63;;;15.40;56.40;;;;;;5065692;28;45399;-71
2023/05/17 04:51:36;;;;;;;0.77;0.70;;;15.50;56.40;;;;;;5065358;28;45328;-72
2023/05/17 04:54:07;;;;;;;0.73;0.70;;;15.50;56.40;;;;;;5065426;28;45367;-72
2023/05/17 04:56:34;;;;;;;1.58;0.90;;;15.50;56.40;;;;;;5065505;28;45300;-71
2023/05/17 04:59:01;;;;;;;0.65;0.65;;;15.50;56.30;;;;;;5065725;28;45300;-71
2023/05/17 05:01:29;;;;;;;0.43;0.43;;;15.50;56.30;;;;;;5065233;28;45458;-72
2023/05/17 05:03:56;;;;;;;0.50;0.50;;;15.50;56.20;;;;;;5065622;28;45427;-72
2023/05/17 05:06:23;;;;;;;0.88;0.70;;;15.50;56.20;;;;;;5065440;28;45325;-72
2023/05/17 05:08:50;;;;;;;1.88;0.80;;;15.50;56.80;;;;;;5065532;28;45502;-72
2023/05/17 05:11:18;;;;;;;0.75;0.50;;;15.50;56.10;;;;;;5065301;28;46574;-72
2023/05/17 05:13:45;;;;;;;1.00;0.60;;;15.50;56.70;;;;;;5065397;28;45400;-71
2023/05/17 05:16:12;;;;;;;1.33;0.70;;;15.50;56.00;;;;;;5065466;28;45316;-72
2023/05/17 05:18:38;;;;;;;0.50;0.50;;;15.50;56.10;;;;;;5065787;28;45389;-72
2023/05/17 05:21:05;;;;;;;0.80;0.80;;;15.50;56.00;;;;;;5065128;28;45258;-72
2023/05/17 05:23:32;;;;;;;0.52;0.52;;;15.50;56.00;;;;;;5065455;28;45277;-72
2023/05/17 05:25:59;;;;;;;0.75;0.43;;;15.50;56.00;;;;;;5065235;28;45311;-71
2023/05/17 05:28:27;;;;;;;0.55;0.50;;;15.50;56.00;;;;;;5065621;28;45405;-72
2023/05/17 05:30:58;;;;;;;2.28;0.70;;;15.50;56.00;;;;;;5068871;28;45438;-71
2023/05/17 05:33:25;;;;;;;0.75;0.70;;;15.50;56.00;;;;;;5068378;28;45509;-72
2023/05/17 05:35:51;;;;;;;0.50;0.50;;;15.60;56.00;;;;;;5068744;28;45402;-71
2023/05/17 05:38:18;;;;;;;0.45;0.45;;;15.50;55.90;;;;;;5069186;28;45332;-72
2023/05/17 05:40:46;;;;;;;1.15;0.50;;;15.50;55.90;;;;;;5068526;28;45253;-71
2023/05/17 05:43:13;;;;;;;0.45;0.45;;;15.50;55.90;;;;;;5068906;28;45161;-72
2023/05/17 05:45:44;;;;;;;1.08;0.60;;;15.60;55.90;;;;;;5068662;28;45419;-71
2023/05/17 05:48:11;;;;;;;0.60;0.60;;;15.60;56.50;;;;;;5068833;28;45122;-72
2023/05/17 05:50:38;;;;;;;0.70;0.60;;;15.60;55.90;;;;;;5068189;28;46381;-71
2023/05/17 05:53:05;;;;;;;0.55;0.52;;;15.60;55.80;;;;;;5068512;28;45461;-72
2023/05/17 05:55:31;;;;;;;0.50;0.35;;;15.60;55.70;;;;;;5068432;28;45386;-72
2023/05/17 05:57:58;;;;;;;0.75;0.60;;;15.70;55.70;;;;;;5068599;28;45380;-71
2023/05/17 06:00:25;;;;;;;0.47;0.45;;;15.70;55.70;;;;;;5067797;28;45475;-71
2023/05/17 06:02:54;;;;;;;0.50;0.50;;;15.70;55.70;;;;;;5068481;28;45186;-72
2023/05/17 06:05:21;;;;;;;0.70;0.40;;;15.60;55.70;;;;;;5068205;28;45321;-72
2023/05/17 06:07:48;;;;;;;0.98;0.60;;;15.60;55.70;;;;;;5068594;28;45350;-72
2023/05/17 06:10:14;;;;;;;1.00;0.52;;;15.60;55.70;;;;;;5065459;28;46242;-72
2023/05/17 06:12:41;;;;;;;0.68;0.60;;;15.60;55.70;;;;;;5068004;28;45303;-72
2023/05/17 06:15:09;;;;;;;0.57;0.50;;;15.60;55.70;;;;;;5067654;28;45265;-72
2023/05/17 06:17:36;;;;;;;0.55;0.55;;;15.60;55.70;;;;;;5067921;28;45532;-71
2023/05/17 06:20:05;;;;;;;1.83;0.60;;;15.70;55.70;;;;;;5067576;28;46414;-72
2023/05/17 06:22:31;;;;;;;0.40;0.40;;;15.70;55.80;;;;;;5068314;28;45350;-72
2023/05/17 06:24:58;;;;;;;0.50;0.50;;;15.70;55.80;;;;;;5067934;28;45277;-72
2023/05/17 06:27:25;;;;;;;0.60;0.60;;;15.70;55.70;;;;;;5067988;28;45356;-73
2023/05/17 06:29:52;;;;;;;1.55;0.77;;;15.70;55.80;;;;;;5067505;28;45380;-72
2023/05/17 06:32:19;;;;;;;0.55;0.55;;;15.70;55.70;;;;;;5067699;28;45322;-70
2023/05/17 06:34:46;;;;;;;0.50;0.50;;;15.70;55.80;;;;;;5067459;28;45272;-72
2023/05/17 06:37:14;;;;;;;0.63;0.60;;;15.70;55.80;;;;;;5068147;28;45459;-72
2023/05/17 06:39:41;;;;;;;0.50;0.50;;;15.70;55.80;;;;;;5067903;28;46645;-72
2023/05/17 06:42:08;;;;;;;0.40;0.40;;;15.70;55.80;;;;;;5066472;28;45383;-71
2023/05/17 06:44:34;;;;;;;0.47;0.38;;;15.70;55.80;;;;;;5067569;28;45328;-71
2023/05/17 06:47:01;;;;;;;0.40;0.40;;;15.70;55.80;;;;;;5067542;28;45250;-71
2023/05/17 06:49:28;;;;;;;0.63;0.60;;;15.70;55.80;;;;;;5067079;28;45656;-71
2023/05/17 06:52:01;;;;;;;1.00;0.70;;;15.70;55.80;;;;;;5067191;28;45530;-71
2023/05/17 06:54:29;;;;;;;0.50;0.50;;;15.70;55.80;;;;;;5067470;28;45209;-70
2023/05/17 06:56:59;;;;;;;0.63;0.60;;;15.70;55.90;;;;;;5067691;28;45536;-72
2023/05/17 06:59:26;;;;;;;0.93;0.50;;;15.70;55.80;;;;;;5067251;28;47587;-72
2023/05/17 07:01:53;;;;;;;0.38;0.38;;;15.80;55.80;;;;;;5066905;28;45277;-72
2023/05/17 07:04:19;;;;;;;0.57;0.57;;;15.80;55.80;;;;;;5067015;28;45388;-72
2023/05/17 07:06:46;;;;;;;0.57;0.40;;;15.80;55.80;;;;;;5067292;28;45404;-72
2023/05/17 07:09:13;;;;;;;0.90;0.52;;;15.80;55.90;;;;;;5067153;28;46369;-72
2023/05/17 07:11:41;;;;;;;0.70;0.55;;;15.80;55.90;;;;;;5066929;28;45318;-71
2023/05/17 07:14:08;;;;;;;0.60;0.60;;;15.80;56.00;;;;;;5066656;28;45299;-71
2023/05/17 07:16:35;;;;;;;0.50;0.50;;;15.80;55.90;;;;;;5066841;28;45340;-71
2023/05/17 07:19:01;;;;;;;0.73;0.70;;;15.80;56.00;;;;;;5066562;28;47277;-70
2023/05/17 07:21:28;;;;;;;0.47;0.47;;;15.80;56.00;;;;;;5066495;28;45400;-71
2023/05/17 07:23:55;;;;;;;0.70;0.70;;;15.80;56.00;;;;;;5066547;28;45272;-70
2023/05/17 07:26:22;;;;;;;0.50;0.50;;;15.80;56.10;;;;;;5066664;28;45379;-69
2023/05/17 07:28:50;;;;;;;0.50;0.50;;;15.70;56.10;;;;;;5066103;28;46340;-69
2023/05/17 07:31:17;;;;;;;1.00;0.40;;;15.80;56.10;;;;;;5066417;28;45422;-67
2023/05/17 07:33:44;;;;;;;1.05;0.65;;;15.70;56.10;;;;;;5066692;28;45376;-70
2023/05/17 07:36:11;;;;;;;0.57;0.43;;;15.70;56.10;;;;;;5066529;28;45478;-70
2023/05/17 07:38:37;;;;;;;0.52;0.52;;;15.70;56.10;;;;;;5066236;28;45253;-70
2023/05/17 07:41:08;;;;;;;1.08;0.45;;;15.80;56.20;;;;;;5066079;28;45262;-70
2023/05/17 07:43:35;;;;;;;0.52;0.50;;;15.80;56.70;;;;;;5066677;28;45415;-71
2023/05/17 07:46:03;;;;;;;0.47;0.47;;;15.80;56.20;;;;;;5066149;28;45455;-69
2023/05/17 07:48:30;;;;;;;1.00;0.50;;;15.80;56.20;;;;;;5065995;28;46372;-70
2023/05/17 07:50:57;;;;;;;0.40;0.40;;;15.80;56.10;;;;;;5065953;28;45348;-69
2023/05/17 07:53:24;;;;;;;0.40;0.40;;;15.80;56.20;;;;;;5066282;28;45383;-70
2023/05/17 07:55:50;;;;;;;0.50;0.47;;;15.80;56.20;;;;;;5066070;28;45265;-69
2023/05/17 07:58:17;;;;;;;0.82;0.70;;;15.80;56.10;;;;;;5065878;28;46416;-70
2023/05/17 08:00:44;;;;;;;0.55;0.50;;;15.80;56.10;;;;;;5065605;28;45210;-70
2023/05/17 08:03:12;;;;;;;0.47;0.47;;;15.80;56.10;;;;;;5066015;28;45346;-70
2023/05/17 08:05:39;;;;;;;0.47;0.47;;;15.90;56.10;;;;;;5066170;28;45304;-69
2023/05/17 08:08:06;;;;;;;0.40;0.40;;;15.90;56.10;;;;;;5065792;28;46663;-70
2023/05/17 08:10:33;;;;;;;0.50;0.50;;;15.90;56.00;;;;;;5065969;28;45312;-70
2023/05/17 08:13:00;;;;;;;0.93;0.45;;;15.90;56.00;;;;;;5065820;28;45221;-70
2023/05/17 08:15:27;;;;;;;1.55;0.60;;;15.90;56.00;;;;;;5066066;28;45511;-71
2023/05/17 08:17:54;;;;;;;0.70;0.63;;;15.90;55.90;;;;;;5065591;28;45478;-69
2023/05/17 08:20:22;;;;;;;0.68;0.50;;;15.90;55.90;;;;;;5065599;28;45299;-69
2023/05/17 08:22:48;;;;;;;0.63;0.60;;;16.00;55.90;;;;;;5065579;28;45211;-69
2023/05/17 08:25:15;;;;;;;0.68;0.57;;;16.00;55.80;;;;;;5065892;28;45285;-69
2023/05/17 08:27:42;;;;;;;0.60;0.60;;;16.00;55.80;;;;;;5065570;28;46379;-69
2023/05/17 08:30:10;;;;;;;1.35;0.70;;;16.00;55.80;;;;;;5065376;28;45430;-70
2023/05/17 08:32:37;;;;;;;1.77;0.47;;;16.00;55.80;;;;;;5065454;28;45249;-71
2023/05/17 08:35:04;;;;;;;0.50;0.50;;;16.00;55.80;;;;;;5065515;28;45354;-69
2023/05/17 08:37:32;;;;;;;0.90;0.65;;;16.10;55.80;;;;;;5065394;28;46359;-69
2023/05/17 08:39:59;;;;;;;0.70;0.52;;;16.10;55.80;;;;;;5065311;28;45363;-70
2023/05/17 08:42:26;;;;;;;0.70;0.60;;;16.10;55.80;;;;;;5065504;28;45337;-68
2023/05/17 08:44:53;;;;;;;0.80;0.70;;;16.10;55.80;;;;;;5065780;28;45470;-69
2023/05/17 08:47:28;;;;;;;0.50;0.50;;;16.10;55.80;;;;;;5065207;28;46381;-68
2023/05/17 08:49:56;;;;;;;0.65;0.60;;;16.10;55.70;;;;;;5065141;28;45221;-68
2023/05/17 08:52:23;;;;;;;0.73;0.70;;;16.20;55.70;;;;;;5065195;28;45368;-68
2023/05/17 08:54:51;;;;;;;0.70;0.70;;;16.20;55.70;;;;;;5065447;28;45384;-67
2023/05/17 08:57:19;;;;;;;2.05;0.90;;;16.20;55.60;;;;;;5065093;28;45343;-68
2023/05/17 08:59:45;;;;;;;1.08;0.82;;;16.20;55.60;;;;;;5065050;28;45337;-69
2023/05/17 09:02:13;;;;;;;0.70;0.70;;;16.30;55.70;;;;;;5065085;28;45397;-68
2023/05/17 09:04:40;;;;;;;0.98;0.75;;;16.30;55.70;;;;;;5067210;28;45454;-69
2023/05/17 09:07:07;;;;;;;0.55;0.55;;;16.30;55.70;;;;;;5068617;28;48555;-69
2023/05/17 09:09:34;;;;;;;1.48;0.70;;;16.30;55.70;;;;;;5068753;28;45307;-69
2023/05/17 09:12:03;;;;;;;0.68;0.68;;;16.30;55.70;;;;;;5068645;28;45257;-69
2023/05/17 09:14:33;;;;;;;0.47;0.47;;;16.30;55.70;;;;;;5068887;28;45538;-68
2023/05/17 09:17:00;;;;;;;0.80;0.80;;;16.30;55.70;;;;;;5068389;28;47328;-69
2023/05/17 09:19:27;;;;;;;1.67;0.70;;;16.30;55.70;;;;;;5068556;28;45328;-69
2023/05/17 09:21:54;;;;;;;1.48;0.80;;;16.30;55.70;;;;;;5068729;28;45411;-69
2023/05/17 09:24:27;;;;;;;1.00;0.80;;;16.40;56.40;;;;;;5068696;28;45546;-69
2023/05/17 09:26:54;;;;;;;0.93;0.70;;;16.40;55.60;;;;;;5068220;28;48562;-69
2023/05/17 09:29:22;;;;;;;0.85;0.75;;;16.50;55.60;;;;;;5068497;28;45446;-69
2023/05/17 09:31:49;;;;;;;0.70;0.68;;;16.50;55.60;;;;;;5068354;28;45272;-69
2023/05/17 09:34:18;;;;;;;1.38;0.80;;;16.50;55.50;;;;;;5068603;28;45265;-69
2023/05/17 09:36:45;;;;;;;0.65;0.65;;;16.50;55.40;;;;;;5068290;28;46279;-69
2023/05/17 09:39:13;;;;;;;0.63;0.63;;;16.60;55.40;;;;;;5068054;28;45332;-69
2023/05/17 09:41:45;;;;;;;0.50;0.50;;;16.60;55.40;;;;;;5068312;28;45323;-69
2023/05/17 09:44:13;;;;;;;1.00;0.70;;;16.60;55.40;;;;;;5068730;28;45311;-69
2023/05/17 09:46:42;;;;;;;1.13;0.65;;;16.60;55.40;;;;;;5067913;28;46391;-69
2023/05/17 09:49:09;;;;;;;1.45;0.80;;;16.60;55.30;;;;;;5067918;28;45327;-69
2023/05/17 09:51:36;;;;;;;0.90;0.82;;;16.70;55.40;;;;;;5068026;28;45319;-69
2023/05/17 09:54:03;;;;;;;0.70;0.70;;;16.70;55.90;;;;;;5068268;28;45319;-68
2023/05/17 09:56:30;;;;;;;1.50;1.13;;;16.70;55.30;;;;;;5067823;28;45336;-69
2023/05/17 09:58:57;;;;;;;1.38;0.93;;;16.80;55.30;;;;;;5068202;28;45302;-69
2023/05/17 10:01:25;;;;;;;0.70;0.70;;;16.80;55.30;;;;;;5067743;28;45382;-69
2023/05/17 10:03:53;;;;;;;0.95;0.75;;;16.80;55.30;;;;;;5068025;28;45451;-69
2023/05/17 10:06:22;;;;;;;1.15;0.82;;;16.80;55.30;;;;;;5067746;28;46503;-69
2023/05/17 10:08:51;;;;;;;1.00;0.77;;;16.80;55.30;;;;;;5067763;28;45314;-70
2023/05/17 10:11:19;;;;;;;0.77;0.75;;;16.80;55.30;;;;;;5067812;28;45309;-69
2023/05/17 10:13:47;;;;;;;1.15;0.80;;;16.80;55.20;;;;;;5068049;28;45487;-69
2023/05/17 10:16:14;;;;;;;1.38;1.00;;;16.90;55.40;;;;;;5066216;28;46771;-69
2023/05/17 10:18:41;;;;;;;1.52;0.88;;;16.90;55.30;;;;;;5068000;28;45304;-69
2023/05/17 10:21:09;;;;;;;0.70;0.70;;;16.90;55.30;;;;;;5067643;28;45246;-69
2023/05/17 10:23:37;;;;;;;1.13;0.90;;;16.90;55.20;;;;;;5067895;28;45283;-69
2023/05/17 10:26:04;;;;;;;0.70;0.70;;;17.00;55.20;;;;;;5067269;28;46638;-70
2023/05/17 10:28:30;;;;;;;2.13;0.90;;;17.00;55.10;;;;;;5067530;28;45379;-69
2023/05/17 10:30:57;;;;;;;1.92;0.50;;;17.00;55.10;;;;;;5067505;28;45391;-69
2023/05/17 10:33:24;;;;;;;1.08;0.98;;;17.00;55.00;;;;;;5067590;28;45471;-69
2023/05/17 10:35:51;;;;;;;1.52;0.95;;;17.10;55.10;;;;;;5067123;28;45310;-69
2023/05/17 10:38:19;;;;;;;0.77;0.77;;;17.10;55.10;;;;;;5067255;28;45340;-69
2023/05/17 10:40:46;;;;;;;1.85;0.90;;;17.10;55.10;;;;;;5067283;28;45347;-70
2023/05/17 10:43:13;;;;;;;0.65;0.65;;;17.10;55.00;;;;;;5067493;28;45304;-69
2023/05/17 10:45:41;;;;;;;1.02;0.82;;;17.20;55.00;;;;;;5066907;28;46356;-69
2023/05/17 10:48:09;;;;;;;0.95;0.70;;;17.20;55.00;;;;;;5067037;28;45324;-69
2023/05/17 10:50:37;;;;;;;1.17;0.90;;;17.20;54.90;;;;;;5067192;28;45385;-69
2023/05/17 10:53:08;;;;;;;0.98;0.95;;;17.20;54.90;;;;;;5067183;28;45332;-69
2023/05/17 10:55:41;;;;;;;1.05;0.80;;;17.30;54.90;;;;;;5066804;28;46376;-69
2023/05/17 10:58:18;;;;;;;1.75;0.90;;;17.30;54.90;;;;;;5067081;28;45359;-69
2023/05/17 11:00:46;;;;;;;2.17;0.73;;;17.40;54.90;;;;;;5066877;28;45358;-69
2023/05/17 11:03:15;;;;;;;0.88;0.80;;;17.40;54.80;;;;;;5067092;28;45292;-69
2023/05/17 11:05:43;;;;;;;0.70;0.70;;;17.40;54.80;;;;;;5066739;28;46976;-69
2023/05/17 11:08:15;;;;;;;0.80;0.80;;;17.50;54.80;;;;;;5066626;28;45383;-69
2023/05/17 11:11:11;;;;;;;1.75;1.02;;;17.50;54.70;;;;;;5066900;28;45373;-69
2023/05/17 11:13:54;;;;;;;1.60;0.80;;;17.60;54.70;;;;;;5066815;28;45404;-69
2023/05/17 11:16:22;;;;;;;1.52;0.65;;;17.60;54.60;;;;;;5066497;28;46434;-69
2023/05/17 11:18:53;;;;;;;0.60;0.60;;;17.70;54.60;;;;;;5066577;28;45231;-69
2023/05/17 11:21:20;;;;;;;0.70;0.70;;;17.70;54.60;;;;;;5066654;28;45366;-69
2023/05/17 11:23:47;;;;;;;0.73;0.70;;;17.80;54.60;;;;;;5066869;28;45447;-69
2023/05/17 11:26:22;;;;;;;1.02;0.63;;;17.80;54.50;;;;;;5066117;28;45468;-69
2023/05/17 11:28:56;;;;;;;0.90;0.90;;;17.80;54.50;;;;;;5066548;28;45321;-69
2023/05/17 11:31:29;;;;;;;0.85;0.70;;;17.90;54.40;;;;;;5066533;28;45332;-69
2023/05/17 11:33:57;;;;;;;0.75;0.75;;;18.00;54.40;;;;;;5066714;28;45245;-69
2023/05/17 11:36:24;;;;;;;1.23;0.90;;;18.10;54.40;;;;;;5066391;28;45477;-69
2023/05/17 11:39:07;;;;;;;1.02;0.93;;;18.10;54.30;;;;;;5066294;28;45623;-69
2023/05/17 11:41:36;;;;;;;0.70;0.70;;;18.20;54.30;;;;;;5046234;28;45299;-70
2023/05/17 11:44:03;;;;;;;1.67;1.10;;;18.20;54.30;;;;;;5046316;28;45428;-70
2023/05/17 11:46:31;;;;;;;1.08;0.80;;;18.20;55.00;;;;;;5045794;28;46563;-69
2023/05/17 11:48:57;;;;;;;0.90;0.80;;;18.10;54.50;;;;;;5045922;28;45418;-69
2023/05/17 11:51:24;;;;;;;1.98;0.80;;;18.20;54.50;;;;;;5065412;28;45357;-68
2023/05/17 11:53:51;;;;;;;0.90;0.90;;;18.30;54.40;;;;;;5066428;28;45324;-69
2023/05/17 11:56:18;;;;;;;1.30;1.15;;;18.30;54.50;;;;;;5066297;28;46516;-68
2023/05/17 11:58:46;;;;;;;1.35;0.82;;;18.30;54.40;;;;;;5075701;27;45306;-68
2023/05/17 12:01:13;;;;;;;1.30;1.10;;;18.40;54.40;;;;;;5045595;28;45382;-69
2023/05/17 12:03:41;;;;;;;0.88;0.80;;;18.50;54.40;;;;;;5045946;28;45490;-68
2023/05/17 12:06:10;;;;;;;2.85;1.02;;;18.50;54.40;;;;;;5045598;28;46750;-69
2023/05/17 12:08:37;;;;;;;1.00;0.90;;;18.60;54.40;;;;;;5045746;28;45177;-69
2023/05/17 12:11:04;;;;;;;1.58;1.10;;;18.70;54.10;;;;;;5069952;28;45343;-68
2023/05/17 12:13:32;;;;;;;1.40;1.10;;;18.70;54.10;;;;;;5065842;28;45363;-69
2023/05/17 12:16:01;;;;;;;1.83;1.00;;;18.70;54.10;;;;;;5069305;28;45422;-69
2023/05/17 12:18:36;;;;;;;1.10;1.00;;;18.70;54.10;;;;;;5065506;28;45310;-68
2023/05/17 12:21:03;;;;;;;2.70;1.75;;;18.70;54.30;;;;;;5069530;28;45423;-69
2023/05/17 12:23:30;;;;;;;3.10;1.67;;;18.70;54.10;;;;;;5065904;28;45320;-69
2023/05/17 12:26:07;;;;;;;3.80;1.73;;;18.70;54.00;;;;;;5065664;28;45362;-69
2023/05/17 12:28:34;;;;;;;3.70;1.88;;;18.80;54.00;;;;;;5066534;28;45286;-69
2023/05/17 12:31:03;;;;;;;3.38;1.90;;;18.90;53.90;;;;;;5068682;28;45316;-69
2023/05/17 12:33:31;;;;;;;3.55;2.20;;;18.90;53.90;;;;;;5077932;27;45490;-69
2023/05/17 12:35:58;;;;;;;8.77;2.42;;;18.90;54.00;;;;;;5065326;28;45474;-70
2023/05/17 12:38:26;;;;;;;6.03;3.10;;;18.90;54.10;;;;;;5064380;28;45264;-69
2023/05/17 12:40:53;;;;;;;9.82;3.60;;;19.00;53.90;;;;;;5070990;28;45510;-70
2023/05/17 12:43:23;;;;;;;6.53;3.00;;;19.10;53.70;;;;;;5085960;27;45385;-70
2023/05/17 12:45:49;;;;;;;7.20;2.97;;;19.20;53.60;;;;;;5085431;27;46663;-71
2023/05/17 12:48:18;;;;;;;7.38;3.38;;;19.30;54.20;;;;;;5084960;27;45269;-70
2023/05/17 12:50:45;;;;;;;8.95;3.97;;;19.30;53.40;;;;;;5083581;27;45352;-69